sensor_id;sensor_type;location;lat;lon;timestamp;temperature;humidity
8099;DHT22;4092;47.876;9.372;2022-09-09T00:01:43;12.70;99.90
8099;DHT22;4092;47.876;9.372;2022-09-09T00:04:19;12.80;99.90
8099;DHT22;4092;47.876;9.372;2022-09-09T00:06:58;12.70;99.90
8099;DHT22;4092;47.876;9.372;2022-09-09T00:09:29;12.80;99.90
8099;DHT22;4092;47.876;9.372;2022-09-09T00:12:02;12.70;99.90
8099;DHT22;4092;47.876;9.372;2022-09-09T00:14:39;12.70;99.90
8099;DHT22;4092;47.876;9.372;2022-09-09T00:17:14;12.70;99.90
8099;DHT22;4092;47.876;9.372;2022-09-09T00:19:47;12.70;99.90
8099;DHT22;4092;47.876;9.372;2022-09-09T00:22:19;12.60;99.90
8099;DHT22;4092;47.876;9.372;2022-09-09T00:24:51;12.60;99.90
8099;DHT22;4092;47.876;9.372;2022-09-09T00:27:29;12.60;99.90
8099;DHT22;4092;47.876;9.372;2022-09-09T00:30:12;12.60;99.90
8099;DHT22;4092;47.876;9.372;2022-09-09T00:32:39;12.60;99.90
8099;DHT22;4092;47.876;9.372;2022-09-09T00:35:16;12.60;99.90
8099;DHT22;4092;47.876;9.372;2022-09-09T00:37:44;12.60;99.90
8099;DHT22;4092;47.876;9.372;2022-09-09T00:40:22;12.60;99.90
8099;DHT22;4092;47.876;9.372;2022-09-09T00:42:59;12.60;99.90
8099;DHT22;4092;47.876;9.372;2022-09-09T00:48:37;12.60;99.90
8099;DHT22;4092;47.876;9.372;2022-09-09T00:51:13;12.70;99.90
8099;DHT22;4092;47.876;9.372;2022-09-09T00:53:59;12.70;99.90
8099;DHT22;4092;47.876;9.372;2022-09-09T00:56:37;12.70;99.90
8099;DHT22;4092;47.876;9.372;2022-09-09T00:59:16;12.60;99.90
8099;DHT22;4092;47.876;9.372;2022-09-09T01:01:51;12.60;99.90
8099;DHT22;4092;47.876;9.372;2022-09-09T01:04:20;12.60;99.90
8099;DHT22;4092;47.876;9.372;2022-09-09T01:07:01;12.60;99.90
8099;DHT22;4092;47.876;9.372;2022-09-09T01:09:33;12.60;99.90
8099;DHT22;4092;47.876;9.372;2022-09-09T01:12:10;12.60;99.90
8099;DHT22;4092;47.876;9.372;2022-09-09T01:14:43;12.60;99.90
8099;DHT22;4092;47.876;9.372;2022-09-09T01:17:17;12.70;99.90
8099;DHT22;4092;47.876;9.372;2022-09-09T01:20:02;12.70;99.90
8099;DHT22;4092;47.876;9.372;2022-09-09T01:22:35;12.80;99.90
8099;DHT22;4092;47.876;9.372;2022-09-09T01:25:18;12.80;99.90
8099;DHT22;4092;47.876;9.372;2022-09-09T01:27:48;12.80;99.90
8099;DHT22;4092;47.876;9.372;2022-09-09T01:30:17;12.90;99.90
8099;DHT22;4092;47.876;9.372;2022-09-09T01:32:46;12.90;99.90
8099;DHT22;4092;47.876;9.372;2022-09-09T01:35:22;13.00;99.90
8099;DHT22;4092;47.876;9.372;2022-09-09T01:37:53;13.00;99.90
8099;DHT22;4092;47.876;9.372;2022-09-09T01:40:20;13.00;99.90
8099;DHT22;4092;47.876;9.372;2022-09-09T01:42:49;13.10;99.90
8099;DHT22;4092;47.876;9.372;2022-09-09T01:45:16;13.10;99.90
8099;DHT22;4092;47.876;9.372;2022-09-09T01:47:44;13.00;99.90
8099;DHT22;4092;47.876;9.372;2022-09-09T01:50:14;13.00;99.90
8099;DHT22;4092;47.876;9.372;2022-09-09T01:52:42;13.00;99.90
8099;DHT22;4092;47.876;9.372;2022-09-09T01:55:10;13.00;99.90
8099;DHT22;4092;47.876;9.372;2022-09-09T01:57:42;13.00;99.90
8099;DHT22;4092;47.876;9.372;2022-09-09T02:00:14;13.00;99.90
8099;DHT22;4092;47.876;9.372;2022-09-09T02:02:47;13.00;99.90
8099;DHT22;4092;47.876;9.372;2022-09-09T02:05:24;12.90;99.90
8099;DHT22;4092;47.876;9.372;2022-09-09T02:08:00;12.90;99.90
8099;DHT22;4092;47.876;9.372;2022-09-09T02:10:31;12.90;99.90
8099;DHT22;4092;47.876;9.372;2022-09-09T02:13:03;12.90;99.90
8099;DHT22;4092;47.876;9.372;2022-09-09T02:15:35;12.80;99.90
8099;DHT22;4092;47.876;9.372;2022-09-09T02:18:08;12.90;99.90
8099;DHT22;4092;47.876;9.372;2022-09-09T02:20:38;12.90;99.90
8099;DHT22;4092;47.876;9.372;2022-09-09T02:23:06;12.90;99.90
8099;DHT22;4092;47.876;9.372;2022-09-09T02:25:36;12.90;99.90
8099;DHT22;4092;47.876;9.372;2022-09-09T02:28:06;12.90;99.90
8099;DHT22;4092;47.876;9.372;2022-09-09T02:30:38;12.90;99.90
8099;DHT22;4092;47.876;9.372;2022-09-09T02:33:07;13.00;99.90
8099;DHT22;4092;47.876;9.372;2022-09-09T02:35:37;13.00;99.90
8099;DHT22;4092;47.876;9.372;2022-09-09T02:38:07;13.00;99.90
8099;DHT22;4092;47.876;9.372;2022-09-09T02:40:35;13.10;99.90
8099;DHT22;4092;47.876;9.372;2022-09-09T02:43:02;13.10;99.90
8099;DHT22;4092;47.876;9.372;2022-09-09T02:45:42;13.10;99.90
8099;DHT22;4092;47.876;9.372;2022-09-09T02:48:16;13.10;99.90
8099;DHT22;4092;47.876;9.372;2022-09-09T02:50:53;13.20;99.90
8099;DHT22;4092;47.876;9.372;2022-09-09T02:53:24;13.20;99.90
8099;DHT22;4092;47.876;9.372;2022-09-09T02:55:58;13.30;99.90
8099;DHT22;4092;47.876;9.372;2022-09-09T02:58:27;13.30;99.90
8099;DHT22;4092;47.876;9.372;2022-09-09T03:00:56;13.40;99.90
8099;DHT22;4092;47.876;9.372;2022-09-09T03:03:24;13.40;99.90
8099;DHT22;4092;47.876;9.372;2022-09-09T03:05:51;13.50;99.90
8099;DHT22;4092;47.876;9.372;2022-09-09T03:08:18;13.60;99.90
8099;DHT22;4092;47.876;9.372;2022-09-09T03:10:45;13.70;99.90
8099;DHT22;4092;47.876;9.372;2022-09-09T03:13:13;13.70;99.90
8099;DHT22;4092;47.876;9.372;2022-09-09T03:15:41;13.80;99.90
8099;DHT22;4092;47.876;9.372;2022-09-09T03:18:09;13.90;99.90
8099;DHT22;4092;47.876;9.372;2022-09-09T03:20:36;13.90;99.90
8099;DHT22;4092;47.876;9.372;2022-09-09T03:23:03;13.90;99.90
8099;DHT22;4092;47.876;9.372;2022-09-09T03:25:30;13.90;99.90
8099;DHT22;4092;47.876;9.372;2022-09-09T03:27:57;13.90;99.90
8099;DHT22;4092;47.876;9.372;2022-09-09T03:30:26;14.00;99.90
8099;DHT22;4092;47.876;9.372;2022-09-09T03:32:53;14.00;99.90
8099;DHT22;4092;47.876;9.372;2022-09-09T03:35:22;14.10;99.90
8099;DHT22;4092;47.876;9.372;2022-09-09T03:37:49;14.10;99.90
8099;DHT22;4092;47.876;9.372;2022-09-09T03:40:16;14.20;99.90
8099;DHT22;4092;47.876;9.372;2022-09-09T03:42:43;14.20;99.90
8099;DHT22;4092;47.876;9.372;2022-09-09T03:45:10;14.30;99.90
8099;DHT22;4092;47.876;9.372;2022-09-09T03:47:37;14.30;99.90
8099;DHT22;4092;47.876;9.372;2022-09-09T03:50:05;14.20;99.90
8099;DHT22;4092;47.876;9.372;2022-09-09T03:52:36;14.20;99.90
8099;DHT22;4092;47.876;9.372;2022-09-09T03:55:04;14.20;99.90
8099;DHT22;4092;47.876;9.372;2022-09-09T03:57:32;14.20;99.90
8099;DHT22;4092;47.876;9.372;2022-09-09T04:00:01;14.20;99.90
8099;DHT22;4092;47.876;9.372;2022-09-09T04:02:28;14.20;99.90
8099;DHT22;4092;47.876;9.372;2022-09-09T04:04:55;14.20;99.90
8099;DHT22;4092;47.876;9.372;2022-09-09T04:07:22;14.30;99.90
8099;DHT22;4092;47.876;9.372;2022-09-09T04:09:51;14.20;99.90
8099;DHT22;4092;47.876;9.372;2022-09-09T04:12:20;14.30;99.90
8099;DHT22;4092;47.876;9.372;2022-09-09T04:14:47;14.30;99.90
8099;DHT22;4092;47.876;9.372;2022-09-09T04:17:14;14.30;99.90
8099;DHT22;4092;47.876;9.372;2022-09-09T04:19:43;14.30;99.90
8099;DHT22;4092;47.876;9.372;2022-09-09T04:22:10;14.30;99.90
8099;DHT22;4092;47.876;9.372;2022-09-09T04:24:37;14.20;99.90
8099;DHT22;4092;47.876;9.372;2022-09-09T04:27:05;14.20;99.90
8099;DHT22;4092;47.876;9.372;2022-09-09T04:29:32;14.10;99.90
8099;DHT22;4092;47.876;9.372;2022-09-09T04:32:00;14.10;99.90
8099;DHT22;4092;47.876;9.372;2022-09-09T04:34:27;13.90;99.90
8099;DHT22;4092;47.876;9.372;2022-09-09T04:36:54;13.90;99.90
8099;DHT22;4092;47.876;9.372;2022-09-09T04:39:21;13.90;99.90
8099;DHT22;4092;47.876;9.372;2022-09-09T04:41:48;13.80;99.90
8099;DHT22;4092;47.876;9.372;2022-09-09T04:44:17;13.70;99.90
8099;DHT22;4092;47.876;9.372;2022-09-09T04:46:44;13.70;99.90
8099;DHT22;4092;47.876;9.372;2022-09-09T04:49:11;13.70;99.90
8099;DHT22;4092;47.876;9.372;2022-09-09T04:51:38;13.60;99.90
8099;DHT22;4092;47.876;9.372;2022-09-09T04:54:05;13.60;99.90
8099;DHT22;4092;47.876;9.372;2022-09-09T04:56:32;13.50;99.90
8099;DHT22;4092;47.876;9.372;2022-09-09T04:58:59;13.50;99.90
8099;DHT22;4092;47.876;9.372;2022-09-09T05:01:29;13.50;99.90
8099;DHT22;4092;47.876;9.372;2022-09-09T05:03:57;13.40;99.90
8099;DHT22;4092;47.876;9.372;2022-09-09T05:06:25;13.40;99.90
8099;DHT22;4092;47.876;9.372;2022-09-09T05:08:52;13.40;99.90
8099;DHT22;4092;47.876;9.372;2022-09-09T05:11:21;13.40;99.90
8099;DHT22;4092;47.876;9.372;2022-09-09T05:13:49;13.40;99.90
8099;DHT22;4092;47.876;9.372;2022-09-09T05:16:17;13.30;99.90
8099;DHT22;4092;47.876;9.372;2022-09-09T05:18:46;13.30;99.90
8099;DHT22;4092;47.876;9.372;2022-09-09T05:21:18;13.30;99.90
8099;DHT22;4092;47.876;9.372;2022-09-09T05:23:46;13.30;99.90
8099;DHT22;4092;47.876;9.372;2022-09-09T05:26:15;13.30;99.90
8099;DHT22;4092;47.876;9.372;2022-09-09T05:28:43;13.30;99.90
8099;DHT22;4092;47.876;9.372;2022-09-09T05:31:11;13.20;99.90
8099;DHT22;4092;47.876;9.372;2022-09-09T05:33:39;13.20;99.90
8099;DHT22;4092;47.876;9.372;2022-09-09T05:36:09;13.20;99.90
8099;DHT22;4092;47.876;9.372;2022-09-09T05:38:39;13.20;99.90
8099;DHT22;4092;47.876;9.372;2022-09-09T05:41:07;13.10;99.90
8099;DHT22;4092;47.876;9.372;2022-09-09T05:43:35;13.10;99.90
8099;DHT22;4092;47.876;9.372;2022-09-09T05:46:04;13.10;99.90
8099;DHT22;4092;47.876;9.372;2022-09-09T05:48:33;13.20;99.90
8099;DHT22;4092;47.876;9.372;2022-09-09T05:51:00;13.30;99.90
8099;DHT22;4092;47.876;9.372;2022-09-09T05:53:30;13.30;99.90
8099;DHT22;4092;47.876;9.372;2022-09-09T05:56:01;13.30;99.90
8099;DHT22;4092;47.876;9.372;2022-09-09T05:58:29;13.30;99.90
8099;DHT22;4092;47.876;9.372;2022-09-09T06:01:03;13.30;99.90
8099;DHT22;4092;47.876;9.372;2022-09-09T06:03:34;13.30;99.90
8099;DHT22;4092;47.876;9.372;2022-09-09T06:06:02;13.30;99.90
8099;DHT22;4092;47.876;9.372;2022-09-09T06:08:33;13.30;99.90
8099;DHT22;4092;47.876;9.372;2022-09-09T06:11:04;13.30;99.90
8099;DHT22;4092;47.876;9.372;2022-09-09T06:13:31;13.30;99.90
8099;DHT22;4092;47.876;9.372;2022-09-09T06:15:59;13.30;99.90
8099;DHT22;4092;47.876;9.372;2022-09-09T06:18:26;13.30;99.90
8099;DHT22;4092;47.876;9.372;2022-09-09T06:20:56;13.40;99.90
8099;DHT22;4092;47.876;9.372;2022-09-09T06:23:24;13.40;99.90
8099;DHT22;4092;47.876;9.372;2022-09-09T06:26:01;13.40;99.90
8099;DHT22;4092;47.876;9.372;2022-09-09T06:28:28;13.40;99.90
8099;DHT22;4092;47.876;9.372;2022-09-09T06:30:58;13.40;99.90
8099;DHT22;4092;47.876;9.372;2022-09-09T06:33:25;13.40;99.90
8099;DHT22;4092;47.876;9.372;2022-09-09T06:35:53;13.40;99.90
8099;DHT22;4092;47.876;9.372;2022-09-09T06:38:23;13.40;99.90
8099;DHT22;4092;47.876;9.372;2022-09-09T06:40:55;13.50;99.90
8099;DHT22;4092;47.876;9.372;2022-09-09T06:43:24;13.50;99.90
8099;DHT22;4092;47.876;9.372;2022-09-09T06:45:55;13.40;99.90
8099;DHT22;4092;47.876;9.372;2022-09-09T06:48:22;13.40;99.90
8099;DHT22;4092;47.876;9.372;2022-09-09T06:50:51;13.50;99.90
8099;DHT22;4092;47.876;9.372;2022-09-09T06:53:26;13.50;99.90
8099;DHT22;4092;47.876;9.372;2022-09-09T06:55:54;13.50;99.90
8099;DHT22;4092;47.876;9.372;2022-09-09T06:58:21;13.50;99.90
8099;DHT22;4092;47.876;9.372;2022-09-09T07:00:49;13.60;99.90
8099;DHT22;4092;47.876;9.372;2022-09-09T07:03:16;13.60;99.90
8099;DHT22;4092;47.876;9.372;2022-09-09T07:05:43;13.60;99.90
8099;DHT22;4092;47.876;9.372;2022-09-09T07:08:10;13.70;99.90
8099;DHT22;4092;47.876;9.372;2022-09-09T07:10:37;13.70;99.90
8099;DHT22;4092;47.876;9.372;2022-09-09T07:13:06;13.80;99.90
8099;DHT22;4092;47.876;9.372;2022-09-09T07:15:33;13.80;99.90
8099;DHT22;4092;47.876;9.372;2022-09-09T07:18:01;13.90;99.90
8099;DHT22;4092;47.876;9.372;2022-09-09T07:20:29;13.90;99.90
8099;DHT22;4092;47.876;9.372;2022-09-09T07:22:56;14.00;99.90
8099;DHT22;4092;47.876;9.372;2022-09-09T07:25:24;14.00;99.90
8099;DHT22;4092;47.876;9.372;2022-09-09T07:27:52;14.10;99.90
8099;DHT22;4092;47.876;9.372;2022-09-09T07:30:21;14.20;99.90
8099;DHT22;4092;47.876;9.372;2022-09-09T07:32:51;14.20;99.90
8099;DHT22;4092;47.876;9.372;2022-09-09T07:35:18;14.30;99.90
8099;DHT22;4092;47.876;9.372;2022-09-09T07:37:45;14.30;99.90
8099;DHT22;4092;47.876;9.372;2022-09-09T07:40:12;14.40;99.90
8099;DHT22;4092;47.876;9.372;2022-09-09T07:42:40;14.40;99.90
8099;DHT22;4092;47.876;9.372;2022-09-09T07:45:07;14.40;99.90
8099;DHT22;4092;47.876;9.372;2022-09-09T07:47:36;14.30;99.90
8099;DHT22;4092;47.876;9.372;2022-09-09T07:50:03;14.40;99.90
8099;DHT22;4092;47.876;9.372;2022-09-09T07:52:30;14.40;99.90
8099;DHT22;4092;47.876;9.372;2022-09-09T07:54:57;14.40;99.90
8099;DHT22;4092;47.876;9.372;2022-09-09T07:57:25;14.30;99.90
8099;DHT22;4092;47.876;9.372;2022-09-09T07:59:53;14.40;99.90
8099;DHT22;4092;47.876;9.372;2022-09-09T08:02:20;14.30;99.90
8099;DHT22;4092;47.876;9.372;2022-09-09T08:04:48;14.40;99.90
8099;DHT22;4092;47.876;9.372;2022-09-09T08:07:15;14.40;99.90
8099;DHT22;4092;47.876;9.372;2022-09-09T08:09:42;14.50;99.90
8099;DHT22;4092;47.876;9.372;2022-09-09T08:12:09;14.50;99.90
8099;DHT22;4092;47.876;9.372;2022-09-09T08:14:38;14.60;99.90
8099;DHT22;4092;47.876;9.372;2022-09-09T08:17:05;14.60;99.90
8099;DHT22;4092;47.876;9.372;2022-09-09T08:19:32;14.70;99.90
8099;DHT22;4092;47.876;9.372;2022-09-09T08:22:02;14.70;99.90
8099;DHT22;4092;47.876;9.372;2022-09-09T08:24:29;14.70;99.90
8099;DHT22;4092;47.876;9.372;2022-09-09T08:26:57;14.80;99.90
8099;DHT22;4092;47.876;9.372;2022-09-09T08:29:25;14.90;99.90
8099;DHT22;4092;47.876;9.372;2022-09-09T08:31:55;15.00;99.90
8099;DHT22;4092;47.876;9.372;2022-09-09T08:34:23;15.10;99.90
8099;DHT22;4092;47.876;9.372;2022-09-09T08:36:53;15.20;99.90
8099;DHT22;4092;47.876;9.372;2022-09-09T08:39:22;15.30;99.90
8099;DHT22;4092;47.876;9.372;2022-09-09T08:44:58;15.40;99.90
8099;DHT22;4092;47.876;9.372;2022-09-09T08:47:36;15.50;99.90
8099;DHT22;4092;47.876;9.372;2022-09-09T08:50:19;15.60;99.90
8099;DHT22;4092;47.876;9.372;2022-09-09T08:52:55;15.50;99.90
8099;DHT22;4092;47.876;9.372;2022-09-09T08:55:35;15.40;99.90
8099;DHT22;4092;47.876;9.372;2022-09-09T08:58:10;15.50;99.90
8099;DHT22;4092;47.876;9.372;2022-09-09T09:00:46;15.60;99.90
8099;DHT22;4092;47.876;9.372;2022-09-09T09:03:21;15.80;99.90
8099;DHT22;4092;47.876;9.372;2022-09-09T09:05:57;16.10;99.90
8099;DHT22;4092;47.876;9.372;2022-09-09T09:08:31;16.30;99.90
8099;DHT22;4092;47.876;9.372;2022-09-09T09:11:05;16.40;99.90
8099;DHT22;4092;47.876;9.372;2022-09-09T09:13:40;16.30;99.90
8099;DHT22;4092;47.876;9.372;2022-09-09T09:16:17;16.30;99.90
8099;DHT22;4092;47.876;9.372;2022-09-09T09:18:45;16.20;99.90
8099;DHT22;4092;47.876;9.372;2022-09-09T09:21:15;16.10;99.90
8099;DHT22;4092;47.876;9.372;2022-09-09T09:23:48;16.10;99.90
8099;DHT22;4092;47.876;9.372;2022-09-09T09:26:18;16.10;99.90
8099;DHT22;4092;47.876;9.372;2022-09-09T09:28:45;16.30;99.90
8099;DHT22;4092;47.876;9.372;2022-09-09T09:31:13;16.60;99.90
8099;DHT22;4092;47.876;9.372;2022-09-09T09:33:47;16.90;99.90
8099;DHT22;4092;47.876;9.372;2022-09-09T09:36:15;16.90;99.90
8099;DHT22;4092;47.876;9.372;2022-09-09T09:38:53;17.10;99.90
8099;DHT22;4092;47.876;9.372;2022-09-09T09:41:33;17.30;99.90
8099;DHT22;4092;47.876;9.372;2022-09-09T09:44:02;17.40;99.90
8099;DHT22;4092;47.876;9.372;2022-09-09T09:46:30;17.50;99.90
8099;DHT22;4092;47.876;9.372;2022-09-09T09:48:58;17.50;99.90
8099;DHT22;4092;47.876;9.372;2022-09-09T09:51:26;17.50;99.90
8099;DHT22;4092;47.876;9.372;2022-09-09T09:53:54;17.50;99.90
8099;DHT22;4092;47.876;9.372;2022-09-09T09:56:32;17.40;99.90
8099;DHT22;4092;47.876;9.372;2022-09-09T09:59:00;17.40;99.90
8099;DHT22;4092;47.876;9.372;2022-09-09T10:01:28;17.30;99.90
8099;DHT22;4092;47.876;9.372;2022-09-09T10:03:58;17.30;99.90
8099;DHT22;4092;47.876;9.372;2022-09-09T10:06:30;17.20;99.90
8099;DHT22;4092;47.876;9.372;2022-09-09T10:08:59;17.20;99.90
8099;DHT22;4092;47.876;9.372;2022-09-09T10:11:35;17.20;99.90
8099;DHT22;4092;47.876;9.372;2022-09-09T10:14:17;17.40;99.90
8099;DHT22;4092;47.876;9.372;2022-09-09T10:16:55;17.60;99.90
8099;DHT22;4092;47.876;9.372;2022-09-09T10:19:29;17.70;99.90
8099;DHT22;4092;47.876;9.372;2022-09-09T10:22:09;17.60;99.90
8099;DHT22;4092;47.876;9.372;2022-09-09T10:25:08;17.50;99.90
8099;DHT22;4092;47.876;9.372;2022-09-09T10:27:46;17.40;99.90
8099;DHT22;4092;47.876;9.372;2022-09-09T10:30:18;17.60;99.90
8099;DHT22;4092;47.876;9.372;2022-09-09T10:32:48;17.80;99.90
8099;DHT22;4092;47.876;9.372;2022-09-09T10:35:30;18.10;99.90
8099;DHT22;4092;47.876;9.372;2022-09-09T10:38:14;18.20;99.90
8099;DHT22;4092;47.876;9.372;2022-09-09T10:44:06;18.20;99.90
8099;DHT22;4092;47.876;9.372;2022-09-09T10:46:45;18.40;99.90
8099;DHT22;4092;47.876;9.372;2022-09-09T10:49:27;18.50;99.90
8099;DHT22;4092;47.876;9.372;2022-09-09T10:52:03;18.40;99.90
8099;DHT22;4092;47.876;9.372;2022-09-09T10:54:46;18.50;99.90
8099;DHT22;4092;47.876;9.372;2022-09-09T10:57:22;18.60;99.90
8099;DHT22;4092;47.876;9.372;2022-09-09T10:59:55;18.80;99.90
8099;DHT22;4092;47.876;9.372;2022-09-09T11:02:27;18.80;99.90
8099;DHT22;4092;47.876;9.372;2022-09-09T11:04:57;19.10;99.90
8099;DHT22;4092;47.876;9.372;2022-09-09T11:07:28;19.10;99.90
8099;DHT22;4092;47.876;9.372;2022-09-09T11:10:02;18.80;99.90
8099;DHT22;4092;47.876;9.372;2022-09-09T11:12:34;18.30;99.90
8099;DHT22;4092;47.876;9.372;2022-09-09T11:15:12;18.10;99.90
8099;DHT22;4092;47.876;9.372;2022-09-09T11:17:45;17.90;99.90
8099;DHT22;4092;47.876;9.372;2022-09-09T11:20:15;18.00;99.90
8099;DHT22;4092;47.876;9.372;2022-09-09T11:22:46;17.80;99.90
8099;DHT22;4092;47.876;9.372;2022-09-09T11:25:16;17.70;99.90
8099;DHT22;4092;47.876;9.372;2022-09-09T11:27:55;17.50;99.90
8099;DHT22;4092;47.876;9.372;2022-09-09T11:30:30;17.40;99.90
8099;DHT22;4092;47.876;9.372;2022-09-09T11:33:28;17.30;99.90
8099;DHT22;4092;47.876;9.372;2022-09-09T11:36:11;17.10;99.90
8099;DHT22;4092;47.876;9.372;2022-09-09T11:38:45;17.10;99.90
8099;DHT22;4092;47.876;9.372;2022-09-09T11:41:13;17.10;99.90
8099;DHT22;4092;47.876;9.372;2022-09-09T11:43:42;17.10;99.90
8099;DHT22;4092;47.876;9.372;2022-09-09T11:46:13;17.10;99.90
8099;DHT22;4092;47.876;9.372;2022-09-09T11:48:44;17.20;99.90
8099;DHT22;4092;47.876;9.372;2022-09-09T11:51:25;17.40;99.90
8099;DHT22;4092;47.876;9.372;2022-09-09T11:53:54;17.80;99.90
8099;DHT22;4092;47.876;9.372;2022-09-09T11:56:26;18.10;99.90
8099;DHT22;4092;47.876;9.372;2022-09-09T11:58:57;18.40;99.90
8099;DHT22;4092;47.876;9.372;2022-09-09T12:01:34;18.80;99.90
8099;DHT22;4092;47.876;9.372;2022-09-09T12:04:17;19.30;99.90
8099;DHT22;4092;47.876;9.372;2022-09-09T12:06:46;19.50;99.90
8099;DHT22;4092;47.876;9.372;2022-09-09T12:09:22;19.40;99.90
8099;DHT22;4092;47.876;9.372;2022-09-09T12:11:50;19.60;99.90
8099;DHT22;4092;47.876;9.372;2022-09-09T12:14:22;19.70;99.90
8099;DHT22;4092;47.876;9.372;2022-09-09T12:16:52;19.70;99.90
8099;DHT22;4092;47.876;9.372;2022-09-09T12:19:21;19.80;99.90
8099;DHT22;4092;47.876;9.372;2022-09-09T12:21:54;20.10;99.90
8099;DHT22;4092;47.876;9.372;2022-09-09T12:24:32;20.50;99.90
8099;DHT22;4092;47.876;9.372;2022-09-09T12:27:10;20.80;99.90
8099;DHT22;4092;47.876;9.372;2022-09-09T12:29:45;20.80;99.90
8099;DHT22;4092;47.876;9.372;2022-09-09T12:32:19;21.00;99.90
8099;DHT22;4092;47.876;9.372;2022-09-09T12:34:49;21.20;99.90
8099;DHT22;4092;47.876;9.372;2022-09-09T12:37:24;21.40;99.90
8099;DHT22;4092;47.876;9.372;2022-09-09T12:39:55;21.70;99.90
8099;DHT22;4092;47.876;9.372;2022-09-09T12:42:23;22.00;99.90
8099;DHT22;4092;47.876;9.372;2022-09-09T12:44:52;22.40;99.90
8099;DHT22;4092;47.876;9.372;2022-09-09T12:47:25;22.90;99.90
8099;DHT22;4092;47.876;9.372;2022-09-09T12:49:53;23.00;99.90
8099;DHT22;4092;47.876;9.372;2022-09-09T12:52:26;23.20;99.90
8099;DHT22;4092;47.876;9.372;2022-09-09T12:54:57;23.50;99.90
8099;DHT22;4092;47.876;9.372;2022-09-09T12:57:26;23.30;99.90
8099;DHT22;4092;47.876;9.372;2022-09-09T13:00:05;23.90;99.90
8099;DHT22;4092;47.876;9.372;2022-09-09T13:02:35;23.90;99.90
8099;DHT22;4092;47.876;9.372;2022-09-09T13:05:15;23.80;99.90
8099;DHT22;4092;47.876;9.372;2022-09-09T13:07:43;23.70;99.90
8099;DHT22;4092;47.876;9.372;2022-09-09T13:10:20;23.70;99.90
8099;DHT22;4092;47.876;9.372;2022-09-09T13:12:48;23.60;99.90
8099;DHT22;4092;47.876;9.372;2022-09-09T13:15:20;23.40;99.90
8099;DHT22;4092;47.876;9.372;2022-09-09T13:17:54;23.40;99.90
8099;DHT22;4092;47.876;9.372;2022-09-09T13:20:22;22.90;99.90
8099;DHT22;4092;47.876;9.372;2022-09-09T13:22:52;23.00;99.90
8099;DHT22;4092;47.876;9.372;2022-09-09T13:25:22;22.40;99.90
8099;DHT22;4092;47.876;9.372;2022-09-09T13:27:55;21.80;99.90
8099;DHT22;4092;47.876;9.372;2022-09-09T13:30:24;21.70;99.90
8099;DHT22;4092;47.876;9.372;2022-09-09T13:33:21;22.10;99.90
8099;DHT22;4092;47.876;9.372;2022-09-09T13:35:51;22.40;99.90
8099;DHT22;4092;47.876;9.372;2022-09-09T13:38:20;22.20;99.90
8099;DHT22;4092;47.876;9.372;2022-09-09T13:40:56;22.10;99.90
8099;DHT22;4092;47.876;9.372;2022-09-09T13:43:25;22.00;99.90
8099;DHT22;4092;47.876;9.372;2022-09-09T13:45:54;22.40;99.90
8099;DHT22;4092;47.876;9.372;2022-09-09T13:48:24;23.00;99.90
8099;DHT22;4092;47.876;9.372;2022-09-09T13:50:56;23.10;99.90
8099;DHT22;4092;47.876;9.372;2022-09-09T13:53:24;22.90;99.90
8099;DHT22;4092;47.876;9.372;2022-09-09T13:55:51;22.20;99.90
8099;DHT22;4092;47.876;9.372;2022-09-09T13:58:18;22.10;99.90
8099;DHT22;4092;47.876;9.372;2022-09-09T14:00:46;22.60;99.90
8099;DHT22;4092;47.876;9.372;2022-09-09T14:03:13;22.60;99.90
8099;DHT22;4092;47.876;9.372;2022-09-09T14:05:42;23.10;99.90
8099;DHT22;4092;47.876;9.372;2022-09-09T14:08:15;23.30;99.90
8099;DHT22;4092;47.876;9.372;2022-09-09T14:10:42;23.10;99.90
8099;DHT22;4092;47.876;9.372;2022-09-09T14:13:09;22.30;99.90
8099;DHT22;4092;47.876;9.372;2022-09-09T14:15:37;21.90;99.90
8099;DHT22;4092;47.876;9.372;2022-09-09T14:18:04;22.10;99.90
8099;DHT22;4092;47.876;9.372;2022-09-09T14:20:31;22.30;99.90
8099;DHT22;4092;47.876;9.372;2022-09-09T14:23:00;22.40;99.90
8099;DHT22;4092;47.876;9.372;2022-09-09T14:25:27;22.20;99.90
8099;DHT22;4092;47.876;9.372;2022-09-09T14:27:54;22.10;99.90
8099;DHT22;4092;47.876;9.372;2022-09-09T14:30:21;22.30;99.90
8099;DHT22;4092;47.876;9.372;2022-09-09T14:32:48;22.50;99.90
8099;DHT22;4092;47.876;9.372;2022-09-09T14:35:15;23.20;99.90
8099;DHT22;4092;47.876;9.372;2022-09-09T14:37:43;23.40;99.90
8099;DHT22;4092;47.876;9.372;2022-09-09T14:40:12;23.40;99.90
8099;DHT22;4092;47.876;9.372;2022-09-09T14:42:40;23.70;99.90
8099;DHT22;4092;47.876;9.372;2022-09-09T14:45:08;24.00;99.90
8099;DHT22;4092;47.876;9.372;2022-09-09T14:47:35;23.70;99.90
8099;DHT22;4092;47.876;9.372;2022-09-09T14:50:04;23.40;99.90
8099;DHT22;4092;47.876;9.372;2022-09-09T14:52:32;23.10;99.90
8099;DHT22;4092;47.876;9.372;2022-09-09T14:54:59;23.10;99.90
8099;DHT22;4092;47.876;9.372;2022-09-09T14:57:27;23.30;99.90
8099;DHT22;4092;47.876;9.372;2022-09-09T14:59:54;23.30;99.90
8099;DHT22;4092;47.876;9.372;2022-09-09T15:02:22;23.60;99.90
8099;DHT22;4092;47.876;9.372;2022-09-09T15:04:49;23.70;99.90
8099;DHT22;4092;47.876;9.372;2022-09-09T15:07:18;23.60;99.90
8099;DHT22;4092;47.876;9.372;2022-09-09T15:09:45;23.10;99.90
8099;DHT22;4092;47.876;9.372;2022-09-09T15:12:14;22.30;99.90
8099;DHT22;4092;47.876;9.372;2022-09-09T15:14:42;21.40;99.90
8099;DHT22;4092;47.876;9.372;2022-09-09T15:17:09;21.10;99.90
8099;DHT22;4092;47.876;9.372;2022-09-09T15:19:36;20.90;99.90
8099;DHT22;4092;47.876;9.372;2022-09-09T15:22:04;21.40;99.90
8099;DHT22;4092;47.876;9.372;2022-09-09T15:24:33;22.00;99.90
8099;DHT22;4092;47.876;9.372;2022-09-09T15:27:00;22.50;99.90
8099;DHT22;4092;47.876;9.372;2022-09-09T15:29:27;22.80;99.90
8099;DHT22;4092;47.876;9.372;2022-09-09T15:31:56;22.90;99.90
8099;DHT22;4092;47.876;9.372;2022-09-09T15:34:23;23.10;99.90
8099;DHT22;4092;47.876;9.372;2022-09-09T15:36:51;23.10;99.90
8099;DHT22;4092;47.876;9.372;2022-09-09T15:39:18;22.40;99.90
8099;DHT22;4092;47.876;9.372;2022-09-09T15:41:46;22.10;99.90
8099;DHT22;4092;47.876;9.372;2022-09-09T15:44:15;21.90;99.90
8099;DHT22;4092;47.876;9.372;2022-09-09T15:46:43;21.40;99.90
8099;DHT22;4092;47.876;9.372;2022-09-09T15:49:14;21.00;99.90
8099;DHT22;4092;47.876;9.372;2022-09-09T15:51:44;20.70;99.90
8099;DHT22;4092;47.876;9.372;2022-09-09T15:54:13;20.60;99.90
8099;DHT22;4092;47.876;9.372;2022-09-09T15:56:42;20.70;99.90
8099;DHT22;4092;47.876;9.372;2022-09-09T15:59:10;20.90;99.90
8099;DHT22;4092;47.876;9.372;2022-09-09T16:01:37;21.10;99.90
8099;DHT22;4092;47.876;9.372;2022-09-09T16:04:05;21.20;99.90
8099;DHT22;4092;47.876;9.372;2022-09-09T16:06:33;21.30;99.90
8099;DHT22;4092;47.876;9.372;2022-09-09T16:09:03;21.50;99.90
8099;DHT22;4092;47.876;9.372;2022-09-09T16:11:32;21.40;99.90
8099;DHT22;4092;47.876;9.372;2022-09-09T16:14:00;21.30;99.90
8099;DHT22;4092;47.876;9.372;2022-09-09T16:16:29;21.20;99.90
8099;DHT22;4092;47.876;9.372;2022-09-09T16:18:58;21.10;99.90
8099;DHT22;4092;47.876;9.372;2022-09-09T16:21:28;21.20;99.90
8099;DHT22;4092;47.876;9.372;2022-09-09T16:23:58;20.90;99.90
8099;DHT22;4092;47.876;9.372;2022-09-09T16:26:26;20.60;99.90
8099;DHT22;4092;47.876;9.372;2022-09-09T16:28:53;20.50;99.90
8099;DHT22;4092;47.876;9.372;2022-09-09T16:31:22;20.60;99.90
8099;DHT22;4092;47.876;9.372;2022-09-09T16:33:50;20.70;99.90